Arthur, Iowa
Current Conditions -  °F | °C
As of 10:15 PM on Sunday 21 Dec 2014 (Local Time) from KSLB Reporting Station
Haze Haze  
Wind Chill: 30°   Ceiling: 200
Heat Index: 39°   Visibility: 1.2mi
Dew Point: 39°   Wind: 17mph
Humidity: 100%   Direction: 170°S
Pressure: 29.65"   Gusts: NA
Location:  42.33°N, 95.35°W
Report Text: KSLB 220415Z AUTO 17015KT 1 1/4SM BR OVC002 04/04 A2965 RMK AO2
Loading
Personal Weather Stations






























Interactive Weather Map New forecast layout! Learn more

10-Day Weather Forecast

Advertisements
Track Severe Weather on mobile